Home > Products > Valid Products > TAF

000
FTUS45 KGGW 252300
TAFGGW
TAF
KGGW 252320Z 2600/2624 11014KT P6SM FEW150
     FM260900 VRB06KT P6SM SCT130
     FM261500 27012KT P6SM BKN120
     FM261800 27020G28KT P6SM SCT080=



000
FTUS45 KGGW 252300
TAFSDY
TAF
KSDY 252320Z 2600/2624 12009KT P6SM FEW160
     FM261200 25008KT P6SM SCT150
     FM261800 28020G28KT P6SM SCT130
      AMD LTD TO CLD VIS AND WIND=



000
FTUS45 KGGW 252300
TAFGDV
TAF
KGDV 252320Z 2600/2624 11008KT P6SM FEW160
     FM261200 22007KT P6SM SCT150
     FM261800 29020KT P6SM SCT120
      AMD LTD TO CLD VIS AND WIND=



000
FTUS45 KGGW 252300
TAFOLF
TAF
KOLF 252320Z 2600/2624 09009KT P6SM FEW150
     FM260900 VRB03KT P6SM SCT140
     FM261500 28012KT P6SM BKN130
     FM261800 28020G29KT P6SM SCT100=



000
FTUS45 KGGW 251700
TAFOLF
TAF
KOLF 251720Z 2518/2618 10008KT P6SM SKC
     FM261200 VRB03KT P6SM BKN150=



000
FTUS45 KGGW 251700
TAFGGW
TAF
KGGW 251720Z 2518/2618 12011KT P6SM FEW210
     FM260900 11007KT P6SM SCT180
     FM261200 00000KT P6SM BKN130=



000
FTUS45 KGGW 251700
TAFGDV
TAF
KGDV 251720Z 2518/2618 12008KT P6SM SKC
     FM261200 23007KT P6SM SCT150
      AMD LTD TO CLD VIS AND WIND=



000
FTUS45 KGGW 251700
TAFSDY
TAF
KSDY 251720Z 2518/2618 13010KT P6SM SKC
     FM261200 VRB06KT P6SM BKN150
      AMD LTD TO CLD VIS AND WIND=



000
FTUS45 KGGW 251700
TAFGDV
TAF
KGDV 251720Z 2518/2618 12008KT P6SM SKC
     FM261200 23007KT P6SM SCT150
      AMD LTD TO CLD VIS AND WIND=



000
FTUS45 KGGW 251700
TAFGGW
TAF
KGGW 251720Z 2518/2618 12011KT P6SM FEW210
     FM260900 11007KT P6SM SCT180
     FM261200 00000KT P6SM BKN130=



000
FTUS45 KGGW 251700
TAFSDY
TAF
KSDY 251720Z 2518/2618 13010KT P6SM SKC
     FM261200 VRB06KT P6SM BKN150
      AMD LTD TO CLD VIS AND WIND=



000
FTUS45 KGGW 251700
TAFOLF
TAF
KOLF 251720Z 2518/2618 10008KT P6SM SKC
     FM261200 VRB03KT P6SM BKN150=



000
FTUS45 KGGW 251100
TAFGGW
TAF
KGGW 251128Z 2512/2612 09005KT P6SM SCT060 BKN100
     FM251500 11010KT P6SM SCT100
     FM251900 13016KT P6SM SKC
     FM260300 11011KT P6SM BKN250=



000
FTUS45 KGGW 251100
TAFSDY
TAF
KSDY 251128Z 2512/2612 00000KT P6SM BKN100
     FM251500 12006KT P6SM SCT100
     FM251900 15014KT P6SM SKC
     FM252300 11007KT P6SM SCT200
      AMD LTD TO CLD VIS AND WIND=



000
FTUS45 KGGW 251100
TAFGDV
TAF
KGDV 251128Z 2512/2612 27005KT P6SM SCT150
     FM251600 13007KT P6SM SKC
     FM251900 14014KT P6SM SKC
     FM252300 11009KT P6SM SCT200
      AMD LTD TO CLD VIS AND WIND=



000
FTUS45 KGGW 251100
TAFOLF
TAF
KOLF 251128Z 2512/2612 00000KT P6SM SCT070 BKN120
     FM251600 09009KT P6SM SCT100
     FM251900 13013KT P6SM SKC
     FM260000 08007KT P6SM BKN250=



000
FTUS45 KGGW 251100
TAFGGW
TAF
KGGW 251128Z 2512/2612 09005KT P6SM SCT060 BKN100
     FM251500 11010KT P6SM SCT100
     FM251900 13016KT P6SM SKC
     FM260300 11011KT P6SM BKN250=



000
FTUS45 KGGW 251100
TAFGDV
TAF
KGDV 251128Z 2512/2612 27005KT P6SM SCT150
     FM251600 13007KT P6SM SKC
     FM251900 14014KT P6SM SKC
     FM252300 11009KT P6SM SCT200
      AMD LTD TO CLD VIS AND WIND=



000
FTUS45 KGGW 251100
TAFOLF
TAF
KOLF 251128Z 2512/2612 00000KT P6SM SCT070 BKN120
     FM251600 09009KT P6SM SCT100
     FM251900 13013KT P6SM SKC
     FM260000 08007KT P6SM BKN250=



000
FTUS45 KGGW 251100
TAFSDY
TAF
KSDY 251128Z 2512/2612 00000KT P6SM BKN100
     FM251500 12006KT P6SM SCT100
     FM251900 15014KT P6SM SKC
     FM252300 11007KT P6SM SCT200
      AMD LTD TO CLD VIS AND WIND=



000
FTUS45 KGGW 250500 RRA
TAFGGW
TAF
KGGW 250541Z 2506/2606 VRB04KT P6SM SCT050 BKN090
     FM251500 11010KT P6SM SKC
     FM251900 13017G25KT P6SM SKC
     FM260300 11012KT P6SM BKN250=



000
FTUS45 KGGW 250500 RRA
TAFSDY
TAF
KSDY 250541Z 2506/2606 00000KT P6SM SCT090 BKN150
     FM251500 12006KT P6SM SKC
     FM251900 15012G18KT P6SM SKC
     FM252300 11007KT P6SM FEW300
      AMD LTD TO CLD VIS AND WIND=



000
FTUS45 KGGW 250500 RRA
TAFOLF
TAF
KOLF 250541Z 2506/2606 00000KT P6SM SCT070 BKN120
     FM251600 09009KT P6SM SKC
     FM251900 13013G19KT P6SM SKC
     FM260000 08007KT P6SM BKN250=



000
FTUS45 KGGW 250500 RRA
TAFGDV
TAF
KGDV 250541Z 2506/2606 27005KT P6SM FEW120 SCT300
     FM251600 13007KT P6SM SKC
     FM251900 14012G18KT P6SM SKC
     FM252300 11009KT P6SM FEW300
      AMD LTD TO CLD VIS AND WIND=



000
FTUS45 KGGW 242300
TAFGDV
TAF
KGDV 242320Z 2500/2524 29007KT P6SM SCT090
     FM250900 VRB03KT P6SM SCT070
     FM251800 13010KT P6SM SKC
      AMD LTD TO CLD VIS AND WIND=



000
FTUS45 KGGW 242300
TAFOLF
TAF
KOLF 242320Z 2500/2524 28008KT P6SM SCT140
     FM250600 VRB05KT P6SM BKN100
     FM251200 00000KT P6SM SCT070
     FM251800 12009KT P6SM FEW110=



000
FTUS45 KGGW 242300
TAFGGW
TAF
KGGW 242320Z 2500/2524 29008KT P6SM SCT140
     FM250600 VRB04KT P6SM BKN100
     FM251800 12012KT P6SM FEW210=



000
FTUS45 KGGW 242300
TAFSDY
TAF
KSDY 242320Z 2500/2524 28008KT P6SM SCT120
     FM250600 VRB06KT P6SM BKN100
     FM251200 00000KT P6SM SCT070
     FM251800 13008KT P6SM SKC
      AMD LTD TO CLD VIS AND WIND=



000
FTUS45 KGGW 241700 RRA
TAFGDV
TAF
KGDV 241741Z 2418/2518 29015G25KT P6SM BKN090
     FM250000 VRB06KT P6SM BKN090
     FM250600 VRB04KT P6SM SCT090
      AMD LTD TO CLD VIS AND WIND=



000
FTUS45 KGGW 241700 RRA
TAFOLF
TAF
KOLF 241741Z 2418/2518 28018KT P6SM SCT090
     FM250000 28008KT P6SM BKN140
     FM250600 VRB04KT P6SM BKN100=



000
FTUS45 KGGW 241700 RRA
TAFSDY
TAF
KSDY 241741Z 2418/2518 28017KT P6SM SCT090
     FM250000 28008KT P6SM BKN120
     FM250900 VRB04KT P6SM BKN080
      AMD LTD TO CLD VIS AND WIND=



000
FTUS45 KGGW 241700 RRA
TAFGGW
TAF
KGGW 241741Z 2418/2518 28017KT P6SM SCT100
     FM250000 29007KT P6SM BKN140
     FM250600 VRB03KT P6SM BKN100=



000
FTUS45 KGGW 241100
TAFGGW
TAF
KGGW 241128Z 2412/2512 27010KT P6SM BKN150
     FM241800 28018KT P6SM SCT100
     FM250100 30007KT P6SM SCT100=



000
FTUS45 KGGW 241100
TAFOLF
TAF
KOLF 241128Z 2412/2512 24007KT P6SM BKN150
     FM241400 27008KT P6SM BKN150
     FM241800 28017KT P6SM SCT090
     FM250000 29006KT P6SM SCT100=



000
FTUS45 KGGW 241100
TAFGDV
TAF
KGDV 241128Z 2412/2512 22007KT P6SM BKN150
     FM241300 27008KT P6SM SCT080
     FM241800 29017KT P6SM BKN070
     FM250100 29010KT P6SM SCT100
      AMD LTD TO CLD VIS AND WIND=



000
FTUS45 KGGW 241100
TAFSDY
TAF
KSDY 241128Z 2412/2512 VRB06KT P6SM BKN150
     FM241300 27009KT P6SM BKN150
     FM241800 28017KT P6SM SCT090
     FM250100 29006KT P6SM SCT100
      AMD LTD TO CLD VIS AND WIND=



000
FTUS45 KGGW 240800 AAA
TAFOLF
TAF AMD
KOLF 240827Z 2408/2506 VRB05KT P6SM VCSH OVC100
     FM241200 27008KT P6SM SCT070
     FM241800 28017KT P6SM SCT090
     FM250000 29006KT P6SM SCT100=



000
FTUS45 KGGW 240800 AAA
TAFGGW
TAF AMD
KGGW 240827Z 2408/2506 VRB05KT P6SM VCSH OVC100
     FM241100 27010KT P6SM BKN090
     FM241800 28018KT P6SM SCT100
     FM250100 30007KT P6SM SCT100=



000
FTUS45 KGGW 240500
TAFGGW
TAF
KGGW 240528Z 2406/2506 VRB05KT P6SM BKN150
     FM241200 27010KT P6SM BKN090
     FM241800 28018KT P6SM SCT100
     FM250100 30007KT P6SM SCT100=



000
FTUS45 KGGW 240500
TAFGDV
TAF
KGDV 240528Z 2406/2506 22007KT P6SM BKN150
     FM241200 27008KT P6SM SCT080
     FM241800 29017KT P6SM BKN070
     FM250100 29010KT P6SM SCT100
      AMD LTD TO CLD VIS AND WIND=



000
FTUS45 KGGW 240500
TAFSDY
TAF
KSDY 240528Z 2406/2506 VRB06KT P6SM BKN150
     FM241200 27009KT P6SM SCT080
     FM241800 28017KT P6SM SCT070
     FM250100 29006KT P6SM SCT100
      AMD LTD TO CLD VIS AND WIND=



000
FTUS45 KGGW 240500
TAFOLF
TAF
KOLF 240528Z 2406/2506 VRB05KT P6SM BKN150
     FM241200 27008KT P6SM SCT070
     FM241800 28017KT P6SM SCT090
     FM250000 29006KT P6SM SCT100=



000
FTUS45 KGGW 232300
TAFSDY
TAF
KSDY 232320Z 2400/2424 VRB06KT P6SM BKN150
     FM241200 27009KT P6SM SCT080
     FM241800 28017KT P6SM SCT070
      AMD LTD TO CLD VIS AND WIND=



000
FTUS45 KGGW 232300
TAFGDV
TAF
KGDV 232320Z 2400/2424 22007KT P6SM BKN150
     FM241200 27008KT P6SM SCT080
     FM241800 29015KT P6SM BKN070
      AMD LTD TO CLD VIS AND WIND=



000
FTUS45 KGGW 232300
TAFGGW
TAF
KGGW 232320Z 2400/2424 VRB05KT P6SM BKN150
     FM240600 VRB04KT P6SM SCT080
     FM241200 27010KT P6SM BKN090
     FM241800 28018KT P6SM SCT100=



000
FTUS45 KGGW 232300
TAFOLF
TAF
KOLF 232320Z 2400/2424 VRB05KT P6SM BKN150
     FM241200 27008KT P6SM SCT070
     FM241800 28017KT P6SM SCT090=



000
FTUS45 KGGW 231700
TAFGGW
TAF
KGGW 231734Z 2318/2418 23008KT P6SM SCT130 BKN200
     FM232100 26011KT P6SM BKN130
     FM240000 25006KT P6SM BKN200
     FM241700 28014KT P6SM BKN250=



000
FTUS45 KGGW 231700
TAFOLF
TAF
KOLF 231734Z 2318/2418 23006KT P6SM SCT120 BKN200
     FM232100 26011KT P6SM BKN130
     FM240000 24006KT P6SM BKN200
     FM241700 28012KT P6SM BKN250=



000
FTUS45 KGGW 231700
TAFSDY
TAF
KSDY 231734Z 2318/2418 14009KT P6SM FEW130 BKN200
     FM232000 22010KT P6SM SCT130 BKN200
     FM240100 25006KT P6SM BKN150
     FM241700 27013KT P6SM BKN200
      AMD LTD TO CLD VIS AND WIND=



000
FTUS45 KGGW 231700
TAFGDV
TAF
KGDV 231734Z 2318/2418 23010KT P6SM FEW130 BKN200
     FM240100 25006KT P6SM BKN130
     FM241700 30014KT P6SM BKN200
      AMD LTD TO CLD VIS AND WIND=



000
FTUS45 KGGW 231100
TAFGDV
TAF
KGDV 231130Z 2312/2412 VRB06KT P6SM SCT200
     FM231800 20010KT P6SM BKN150
     FM240100 25006KT P6SM BKN100
      AMD LTD TO CLD VIS AND WIND=



000
FTUS45 KGGW 231100
TAFSDY
TAF
KSDY 231130Z 2312/2412 VRB06KT P6SM SCT200
     FM232000 22010KT P6SM BKN150
     FM240100 25006KT P6SM BKN100
      AMD LTD TO CLD VIS AND WIND=



000
FTUS45 KGGW 231100
TAFGGW
TAF
KGGW 231130Z 2312/2412 12010KT P6SM BKN200
     FM231700 23008KT P6SM BKN150
     FM232100 26011KT P6SM BKN100
     FM240000 25006KT P6SM BKN100=



000
FTUS45 KGGW 231100
TAFOLF
TAF
KOLF 231130Z 2312/2412 VRB05KT P6SM BKN200
     FM231800 23009KT P6SM BKN150
     FM232100 26011KT P6SM BKN100
     FM240000 24006KT P6SM BKN110=



000
FTUS45 KGGW 230500
TAFSDY
TAF
KSDY 230522Z 2306/2406 VRB06KT P6SM FEW250
     FM232100 22010KT P6SM FEW110
     FM240000 VRB05KT P6SM BKN100
      AMD LTD TO CLD VIS AND WIND=



000
FTUS45 KGGW 230500
TAFOLF
TAF
KOLF 230522Z 2306/2406 VRB05KT P6SM FEW240
     FM232100 23009KT P6SM SCT100
     FM240000 VRB05KT P6SM BKN110=



000
FTUS45 KGGW 230500
TAFGGW
TAF
KGGW 230522Z 2306/2406 VRB04KT P6SM FEW200
     FM231800 18008KT P6SM SCT090
     FM240000 VRB04KT P6SM BKN100=



000
FTUS45 KGGW 230500
TAFGDV
TAF
KGDV 230522Z 2306/2406 VRB06KT P6SM FEW210
     FM231800 20010KT P6SM SCT140
     FM240000 VRB06KT P6SM SCT120
      AMD LTD TO CLD VIS AND WIND=



    US Dept of Commerce
    National Oceanic and Atmospheric Administration
    National Weather Service
    1325 East West Highway
    Silver Spring, MD 20910
    Page Author: NWS Internet Services Team
Disclaimer
Information Quality
Credits
Glossary
Privacy Policy
Freedom of Information Act (FOIA)
About Us
Career Opportunities